Terminal Aerodrome Forecast
Issued by NWS

Home | Current Version | Previous Version | Text Only | Print | Product List | Glossary On
Versions: 1 2 3 4 5 6 7 8 9 10 11 12 13 14 15 16 17 18 19 20 21 22 23 24
000
FTUS42 KFFC 161100
TAFPDK
TAF
KPDK 161128Z 1612/1712 VRB03KT 5SM BR SCT007 BKN015
      TEMPO 1612/1615 4SM -RA BR BKN007
     FM161500 30006KT P6SM VCSH BKN015
     FM161700 33008KT P6SM SCT025 BKN050
     FM161900 33009KT P6SM SCT050 BKN120
     FM170200 34005KT P6SM SCT120 BKN250=

USA.gov is the U.S. government's official web portal to all federal, state and local government web resources and services.